Time;durP1;ratioP1;P1;durP2;ratioP2;P2;SDS_P1;SDS_P2;PMS_P1;PMS_P2;Temp;Humidity;BMP_temperature;BMP_pressure;BME280_temperature;BME280_humidity;BME280_pressure;Samples;Min_cycle;Max_cycle;Signal;HPM_P1;HPM_P2
2022/10/19 00:01:08;;;;;;;4.10;2.00;;;12.10;99.90;;;;;;4918106;29;20452;-87
2022/10/19 00:03:38;;;;;;;4.90;2.27;;;12.10;99.90;;;;;;4916774;29;20528;-88
2022/10/19 00:06:12;;;;;;;9.63;2.50;;;12.20;99.90;;;;;;4916798;29;20555;-88
2022/10/19 00:08:40;;;;;;;5.63;2.27;;;12.10;99.90;;;;;;4916620;29;20476;-88
2022/10/19 00:11:09;;;;;;;9.53;2.20;;;12.20;99.90;;;;;;4918346;29;20460;-88
2022/10/19 00:13:37;;;;;;;5.03;2.50;;;12.20;99.90;;;;;;4916665;29;20962;-87
2022/10/19 00:16:09;;;;;;;6.70;2.50;;;12.20;99.90;;;;;;4917851;29;20440;-87
2022/10/19 00:18:42;;;;;;;5.20;2.50;;;12.20;99.90;;;;;;4917998;29;20477;-87
2022/10/19 00:21:12;;;;;;;6.93;2.40;;;12.20;99.90;;;;;;4916884;29;20452;-87
2022/10/19 00:23:40;;;;;;;6.17;2.30;;;12.20;99.90;;;;;;4918021;29;20812;-87
2022/10/19 00:26:08;;;;;;;6.03;2.83;;;12.20;99.90;;;;;;4916569;29;20560;-87
2022/10/19 00:28:37;;;;;;;4.77;1.77;;;12.20;99.90;;;;;;4916465;29;21049;-87
2022/10/19 00:31:06;;;;;;;6.10;2.47;;;12.20;99.90;;;;;;4916254;29;20555;-87
2022/10/19 00:33:34;;;;;;;5.03;2.73;;;12.20;99.90;;;;;;4916442;29;20876;-87
2022/10/19 00:36:05;;;;;;;6.00;2.57;;;12.20;99.90;;;;;;4916623;29;20547;-88
2022/10/19 00:38:33;;;;;;;7.07;2.70;;;12.20;99.90;;;;;;4916922;29;20472;-88
2022/10/19 00:41:02;;;;;;;5.77;2.40;;;12.20;99.90;;;;;;4916579;29;20980;-87
2022/10/19 00:43:31;;;;;;;6.63;3.10;;;12.20;99.90;;;;;;4918667;29;20456;-87
2022/10/19 00:45:59;;;;;;;10.40;3.87;;;12.20;99.90;;;;;;4917294;29;20456;-87
2022/10/19 00:48:32;;;;;;;5.83;2.10;;;12.20;99.90;;;;;;4917190;29;20535;-87
2022/10/19 00:51:00;;;;;;;7.87;2.70;;;12.20;99.90;;;;;;4917723;29;20447;-87
2022/10/19 00:53:31;;;;;;;5.77;2.50;;;12.20;99.90;;;;;;4917296;29;20520;-87
2022/10/19 00:56:03;;;;;;;10.37;2.67;;;12.20;99.90;;;;;;4917085;29;20449;-87
2022/10/19 00:58:31;;;;;;;6.93;2.60;;;12.20;99.90;;;;;;4917790;29;20459;-87
2022/10/19 01:01:03;;;;;;;8.13;2.40;;;12.20;99.90;;;;;;4916496;29;20465;-87
2022/10/19 01:03:32;;;;;;;5.23;1.90;;;12.20;99.90;;;;;;4916365;29;20452;-87
2022/10/19 01:06:00;;;;;;;8.23;2.70;;;12.20;99.90;;;;;;4917489;29;20460;-87
2022/10/19 01:08:30;;;;;;;8.67;2.53;;;12.20;99.90;;;;;;4917710;29;20460;-87
2022/10/19 01:11:10;;;;;;;7.17;2.50;;;12.20;99.90;;;;;;4916194;29;20441;-87
2022/10/19 01:13:46;;;;;;;8.00;2.90;;;12.20;99.90;;;;;;4916444;29;20441;-87
2022/10/19 01:16:21;;;;;;;6.20;2.97;;;12.20;99.90;;;;;;4916374;29;20451;-87
2022/10/19 01:18:57;;;;;;;6.10;2.07;;;12.30;99.90;;;;;;4916969;29;20463;-87
2022/10/19 01:21:28;;;;;;;7.97;2.33;;;12.20;99.90;;;;;;4915987;29;20444;-87
2022/10/19 01:24:22;;;;;;;5.27;2.10;;;12.20;99.90;;;;;;4916201;29;20464;-87
2022/10/19 01:27:33;;;;;;;5.47;1.90;;;12.20;99.90;;;;;;4916190;29;20451;-87
2022/10/19 01:30:29;;;;;;;10.50;2.87;;;12.20;99.90;;;;;;4916208;29;20459;-87
2022/10/19 01:33:13;;;;;;;7.63;2.63;;;12.20;99.90;;;;;;4914718;29;20460;-87
2022/10/19 01:35:50;;;;;;;8.30;1.93;;;12.20;99.90;;;;;;4918991;29;20554;-87
2022/10/19 01:38:25;;;;;;;7.40;2.20;;;12.20;99.90;;;;;;4919247;29;20468;-87
2022/10/19 01:40:59;;;;;;;7.40;2.30;;;12.20;99.90;;;;;;4919128;29;20492;-87
2022/10/19 01:43:40;;;;;;;7.03;1.90;;;12.20;99.90;;;;;;4920279;29;20902;-87
2022/10/19 01:46:14;;;;;;;5.10;1.87;;;12.20;99.90;;;;;;4919263;29;20965;-87
2022/10/19 01:48:49;;;;;;;6.57;2.07;;;12.20;99.90;;;;;;4919069;29;20483;-87
2022/10/19 01:51:21;;;;;;;7.43;2.50;;;12.20;99.90;;;;;;4921406;29;20441;-88
2022/10/19 01:53:53;;;;;;;4.53;2.27;;;12.20;99.90;;;;;;4918990;29;20881;-88
2022/10/19 01:56:26;;;;;;;9.50;2.10;;;12.20;99.90;;;;;;4919450;29;20448;-87
2022/10/19 01:58:56;;;;;;;3.60;1.47;;;12.20;99.90;;;;;;4919053;29;20536;-87
2022/10/19 02:01:31;;;;;;;5.47;2.37;;;12.20;99.90;;;;;;4920373;29;20496;-88
2022/10/19 02:04:00;;;;;;;8.90;2.23;;;12.20;99.90;;;;;;4918965;29;20784;-88
2022/10/19 02:06:29;;;;;;;5.50;1.97;;;12.20;99.90;;;;;;4918948;29;20460;-88
2022/10/19 02:08:57;;;;;;;5.60;1.90;;;12.20;99.90;;;;;;4920120;29;21048;-87
2022/10/19 02:11:25;;;;;;;7.33;2.27;;;12.40;99.90;;;;;;4919791;29;21017;-88
2022/10/19 02:13:58;;;;;;;5.17;2.03;;;12.20;99.90;;;;;;4918687;29;20470;-88
2022/10/19 02:16:32;;;;;;;5.77;2.10;;;12.20;99.90;;;;;;4918664;29;20482;-87
2022/10/19 02:19:02;;;;;;;7.00;2.90;;;12.20;99.90;;;;;;4918527;29;20843;-87
2022/10/19 02:21:32;;;;;;;6.10;2.07;;;12.20;99.90;;;;;;4920323;29;20970;-87
2022/10/19 02:24:00;;;;;;;5.60;1.90;;;12.20;99.90;;;;;;4919705;29;20481;-87
2022/10/19 02:26:28;;;;;;;8.53;2.53;;;12.20;99.90;;;;;;4918536;29;21045;-87
2022/10/19 02:28:57;;;;;;;4.37;1.70;;;12.20;99.90;;;;;;4920124;29;20966;-88
2022/10/19 02:31:27;;;;;;;5.47;1.93;;;12.20;99.90;;;;;;4918542;29;20467;-87
2022/10/19 02:33:56;;;;;;;5.80;1.90;;;12.20;99.90;;;;;;4918438;29;20455;-87
2022/10/19 02:36:24;;;;;;;4.90;2.10;;;12.20;99.90;;;;;;4918470;29;20468;-87
2022/10/19 02:38:53;;;;;;;5.77;2.10;;;12.20;99.90;;;;;;4918597;29;20528;-87
2022/10/19 02:41:26;;;;;;;4.10;2.23;;;12.20;99.90;;;;;;4918238;29;20503;-87
2022/10/19 02:44:00;;;;;;;4.03;2.23;;;12.20;99.90;;;;;;4919673;29;20436;-87
2022/10/19 02:46:36;;;;;;;6.03;2.00;;;12.20;99.90;;;;;;4917036;29;20816;-88
2022/10/19 02:49:06;;;;;;;4.63;1.80;;;12.20;99.90;;;;;;4918030;29;20582;-88
2022/10/19 02:51:35;;;;;;;5.43;2.03;;;12.20;99.90;;;;;;4919373;29;20862;-88
2022/10/19 02:54:05;;;;;;;9.33;2.23;;;12.20;99.90;;;;;;4917882;29;20819;-88
2022/10/19 02:56:35;;;;;;;7.20;2.20;;;12.20;99.90;;;;;;4919341;29;20444;-88
2022/10/19 02:59:03;;;;;;;8.23;2.37;;;12.20;99.90;;;;;;4917859;29;20472;-88
2022/10/19 03:01:33;;;;;;;6.60;2.30;;;12.20;99.90;;;;;;4919295;29;20496;-88
2022/10/19 03:04:01;;;;;;;5.00;1.90;;;12.20;99.90;;;;;;4917840;29;20818;-88
2022/10/19 03:06:29;;;;;;;6.13;1.80;;;12.20;99.90;;;;;;4917777;29;20463;-88
2022/10/19 03:08:57;;;;;;;4.40;2.33;;;12.20;99.90;;;;;;4917949;29;20469;-87
2022/10/19 03:11:25;;;;;;;4.33;1.43;;;12.20;99.90;;;;;;4919445;29;20460;-87
2022/10/19 03:13:53;;;;;;;10.63;1.60;;;12.20;99.90;;;;;;4918658;29;20466;-87
2022/10/19 03:16:21;;;;;;;3.67;1.70;;;12.20;99.90;;;;;;4927158;29;20462;-87
2022/10/19 03:18:51;;;;;;;5.33;2.00;;;12.20;99.90;;;;;;4937250;29;20496;-87
2022/10/19 03:21:19;;;;;;;4.70;1.80;;;12.20;99.90;;;;;;4935514;29;20471;-87
2022/10/19 03:23:48;;;;;;;9.07;2.90;;;12.20;99.90;;;;;;4934772;29;20476;-87
2022/10/19 03:26:18;;;;;;;6.00;1.90;;;12.20;99.90;;;;;;4934090;29;20480;-87
2022/10/19 03:28:46;;;;;;;5.23;2.10;;;12.20;99.90;;;;;;4932980;29;20482;-87
2022/10/19 03:31:14;;;;;;;6.40;1.93;;;12.20;99.90;;;;;;4933854;29;20464;-87
2022/10/19 03:33:42;;;;;;;5.23;2.70;;;12.20;99.90;;;;;;4924931;29;20456;-87
2022/10/19 03:36:24;;;;;;;5.20;1.87;;;12.20;99.90;;;;;;4927948;29;20460;-87
2022/10/19 03:38:54;;;;;;;6.17;2.10;;;12.20;99.90;;;;;;4917453;29;20464;-87
2022/10/19 03:41:23;;;;;;;6.37;1.80;;;12.20;99.90;;;;;;4918549;29;20978;-87
2022/10/19 03:43:52;;;;;;;7.50;2.83;;;12.20;99.90;;;;;;4917323;29;20456;-87
2022/10/19 03:46:21;;;;;;;5.03;1.80;;;12.20;99.90;;;;;;4916991;29;20479;-87
2022/10/19 03:48:49;;;;;;;5.53;2.13;;;12.10;99.90;;;;;;4918366;29;20483;-87
2022/10/19 03:51:21;;;;;;;6.57;2.20;;;12.20;99.90;;;;;;4916878;29;20549;-87
2022/10/19 03:53:53;;;;;;;6.97;2.23;;;12.20;99.90;;;;;;4918314;29;20429;-87
2022/10/19 03:56:23;;;;;;;6.50;2.00;;;12.20;99.90;;;;;;4916585;29;20796;-87
2022/10/19 03:58:53;;;;;;;6.27;2.30;;;12.20;99.90;;;;;;4916467;29;20508;-87
2022/10/19 04:01:23;;;;;;;5.67;2.30;;;12.20;99.90;;;;;;4918094;29;20460;-87
2022/10/19 04:03:53;;;;;;;5.37;2.20;;;12.20;99.90;;;;;;4916606;29;20456;-87
2022/10/19 04:06:25;;;;;;;3.77;2.00;;;12.10;99.90;;;;;;4916686;29;20831;-87
2022/10/19 04:08:53;;;;;;;5.33;2.00;;;12.20;99.90;;;;;;4916767;29;20894;-87
2022/10/19 04:11:23;;;;;;;4.07;1.80;;;12.20;99.90;;;;;;4916577;29;20965;-87
2022/10/19 04:13:52;;;;;;;4.73;1.83;;;12.20;99.90;;;;;;4916658;29;20452;-87
2022/10/19 04:16:22;;;;;;;5.20;2.10;;;12.10;99.90;;;;;;4916739;29;20480;-87
2022/10/19 04:18:51;;;;;;;9.53;2.50;;;12.20;99.90;;;;;;4916822;29;20476;-87
2022/10/19 04:21:23;;;;;;;9.67;2.10;;;12.10;99.90;;;;;;4916408;29;20476;-87
2022/10/19 04:23:52;;;;;;;6.17;1.97;;;12.10;99.90;;;;;;4916589;29;20859;-87
2022/10/19 04:26:21;;;;;;;4.20;2.00;;;12.20;99.90;;;;;;4916555;29;20464;-87
2022/10/19 04:28:49;;;;;;;6.73;2.40;;;12.10;99.90;;;;;;4916169;29;20889;-87
2022/10/19 04:31:17;;;;;;;4.73;2.20;;;12.10;99.90;;;;;;4917926;29;20492;-87
2022/10/19 04:33:45;;;;;;;6.23;2.60;;;12.10;99.90;;;;;;4917475;29;20452;-87
2022/10/19 04:36:13;;;;;;;7.87;3.13;;;12.10;99.90;;;;;;4918107;29;20500;-87
2022/10/19 04:38:43;;;;;;;4.70;2.30;;;12.10;99.90;;;;;;4916343;29;20468;-87
2022/10/19 04:41:13;;;;;;;8.67;2.30;;;12.10;99.90;;;;;;4916103;29;20476;-87
2022/10/19 04:43:44;;;;;;;9.23;2.97;;;12.10;99.90;;;;;;4918041;29;20821;-87
2022/10/19 04:46:13;;;;;;;6.83;2.50;;;12.10;99.90;;;;;;4916399;29;20511;-87
2022/10/19 04:48:42;;;;;;;6.00;2.50;;;12.10;99.90;;;;;;4916972;29;20473;-87
2022/10/19 04:51:10;;;;;;;7.73;2.90;;;12.10;99.90;;;;;;4916620;29;20460;-87
2022/10/19 04:53:41;;;;;;;7.10;2.30;;;12.10;99.90;;;;;;4916749;29;20444;-87
2022/10/19 04:56:13;;;;;;;6.03;2.57;;;12.10;99.90;;;;;;4916864;29;20557;-87
2022/10/19 04:58:41;;;;;;;5.33;2.07;;;12.10;99.90;;;;;;4916263;29;20483;-86
2022/10/19 05:01:10;;;;;;;6.20;2.80;;;12.10;99.90;;;;;;4916914;29;20476;-86
2022/10/19 05:03:39;;;;;;;8.00;2.93;;;12.20;99.90;;;;;;4916962;29;20453;-86
2022/10/19 05:06:08;;;;;;;7.00;2.80;;;12.10;99.90;;;;;;4916182;29;20457;-87
2022/10/19 05:08:37;;;;;;;8.00;3.60;;;12.10;99.90;;;;;;4916171;29;20472;-87
2022/10/19 05:11:09;;;;;;;8.20;3.20;;;12.10;99.90;;;;;;4921015;29;20441;-87
2022/10/19 05:13:42;;;;;;;5.10;2.57;;;12.10;99.90;;;;;;4920017;29;20457;-87
2022/10/19 05:16:13;;;;;;;8.17;3.10;;;12.10;99.90;;;;;;4919722;29;20467;-87
2022/10/19 05:18:42;;;;;;;7.20;2.60;;;12.10;99.90;;;;;;4919511;29;20527;-87
2022/10/19 05:21:12;;;;;;;5.87;2.20;;;12.10;99.90;;;;;;4919329;29;20472;-87
2022/10/19 05:23:41;;;;;;;10.67;2.97;;;12.10;99.90;;;;;;4919613;29;20998;-87
2022/10/19 05:26:11;;;;;;;7.37;3.10;;;12.10;99.90;;;;;;4919365;29;20563;-87
2022/10/19 05:28:41;;;;;;;8.57;2.20;;;12.10;99.90;;;;;;4919246;29;21040;-86
2022/10/19 05:31:10;;;;;;;7.00;2.73;;;12.10;99.90;;;;;;4932849;29;20448;-87
2022/10/19 05:33:39;;;;;;;8.33;2.80;;;12.10;99.90;;;;;;4919382;29;20456;-89
2022/10/19 05:36:16;;;;;;;7.37;2.60;;;12.10;99.90;;;;;;4920939;29;20452;-90
2022/10/19 05:38:46;;;;;;;6.77;3.03;;;12.10;99.90;;;;;;4919825;29;20484;-90
2022/10/19 05:41:15;;;;;;;8.47;2.83;;;12.10;99.90;;;;;;4919118;29;20792;-90
2022/10/19 05:43:46;;;;;;;9.63;2.90;;;12.10;99.90;;;;;;4919497;29;20452;-90
2022/10/19 05:46:17;;;;;;;8.30;2.57;;;12.10;99.90;;;;;;4919414;29;20456;-90
2022/10/19 05:48:46;;;;;;;8.63;2.70;;;12.10;99.90;;;;;;4919068;29;20535;-89
2022/10/19 05:51:17;;;;;;;6.20;2.63;;;12.10;99.90;;;;;;4918891;29;20456;-89
2022/10/19 05:53:45;;;;;;;8.53;2.43;;;12.10;99.90;;;;;;4920076;29;20463;-89
2022/10/19 05:56:16;;;;;;;4.47;2.10;;;12.10;99.90;;;;;;4918966;29;20463;-90
2022/10/19 05:58:46;;;;;;;8.37;2.83;;;12.10;99.90;;;;;;4918808;29;20471;-90
2022/10/19 06:01:17;;;;;;;7.83;3.20;;;12.10;99.90;;;;;;4918934;29;20547;-89
2022/10/19 06:03:46;;;;;;;7.40;2.97;;;12.10;99.90;;;;;;4919214;29;20832;-89
2022/10/19 06:06:15;;;;;;;10.50;3.07;;;12.10;99.90;;;;;;4918980;29;20456;-90
2022/10/19 06:08:43;;;;;;;8.10;3.90;;;12.10;99.90;;;;;;4918815;29;20579;-90
2022/10/19 06:11:13;;;;;;;6.77;2.40;;;12.10;99.90;;;;;;4919469;29;20969;-89
2022/10/19 06:13:42;;;;;;;6.20;3.10;;;12.10;99.90;;;;;;4919315;29;20814;-89
2022/10/19 06:16:14;;;;;;;9.17;2.73;;;12.10;99.90;;;;;;4918676;29;20456;-89
2022/10/19 06:18:43;;;;;;;8.20;2.70;;;12.10;99.90;;;;;;4919302;29;20480;-90
2022/10/19 06:21:13;;;;;;;9.57;2.90;;;12.10;99.90;;;;;;4918757;29;20471;-89
2022/10/19 06:23:42;;;;;;;9.47;3.23;;;12.10;99.90;;;;;;4920015;29;20468;-89
2022/10/19 06:26:12;;;;;;;8.50;2.77;;;12.10;99.90;;;;;;4920050;29;20461;-89
2022/10/19 06:28:43;;;;;;;10.20;2.83;;;12.10;99.90;;;;;;4919521;29;20530;-89
2022/10/19 06:31:13;;;;;;;8.37;2.40;;;12.10;99.90;;;;;;4918720;29;20444;-90
2022/10/19 06:33:43;;;;;;;6.60;1.93;;;12.10;99.90;;;;;;4918496;29;20472;-90
2022/10/19 06:36:17;;;;;;;11.47;2.47;;;12.10;99.90;;;;;;4918323;29;20504;-90
2022/10/19 06:38:45;;;;;;;6.67;1.90;;;12.10;99.90;;;;;;4918084;29;20476;-90
2022/10/19 06:41:14;;;;;;;4.93;2.00;;;12.10;99.90;;;;;;4918762;29;20491;-89
2022/10/19 06:43:42;;;;;;;6.83;2.00;;;12.10;99.90;;;;;;4918285;29;20476;-90
2022/10/19 06:46:19;;;;;;;6.30;2.23;;;12.10;99.90;;;;;;4918543;29;20463;-90
2022/10/19 06:48:51;;;;;;;5.13;2.03;;;12.10;99.90;;;;;;4918572;29;20574;-90
2022/10/19 06:51:20;;;;;;;6.47;1.87;;;12.10;99.90;;;;;;4917992;29;20818;-89
2022/10/19 06:53:49;;;;;;;5.93;1.97;;;12.10;99.90;;;;;;4917864;29;20555;-89
2022/10/19 06:56:23;;;;;;;7.00;2.60;;;12.10;99.90;;;;;;4918144;29;20453;-90
2022/10/19 06:58:52;;;;;;;5.80;1.63;;;12.10;99.90;;;;;;4917828;29;20851;-89
2022/10/19 07:01:22;;;;;;;7.23;2.10;;;12.10;99.90;;;;;;4918433;29;20520;-89
2022/10/19 07:03:51;;;;;;;4.90;1.70;;;12.10;99.90;;;;;;4920454;29;20479;-89
2022/10/19 07:06:20;;;;;;;6.27;2.27;;;12.10;99.90;;;;;;4918806;29;21066;-88
2022/10/19 07:08:48;;;;;;;6.50;2.00;;;12.20;99.90;;;;;;4919002;29;20495;-89
2022/10/19 07:11:19;;;;;;;8.40;2.60;;;12.20;99.90;;;;;;4918380;29;21044;-87
2022/10/19 07:13:47;;;;;;;5.90;2.00;;;12.20;99.90;;;;;;4919023;29;20460;-88
2022/10/19 07:16:17;;;;;;;6.60;2.60;;;12.20;99.90;;;;;;4920475;29;20436;-88
2022/10/19 07:18:51;;;;;;;7.87;2.37;;;12.20;99.90;;;;;;4918473;29;20481;-88
2022/10/19 07:21:21;;;;;;;7.70;2.20;;;12.20;99.90;;;;;;4919045;29;20455;-88
2022/10/19 07:23:50;;;;;;;5.87;2.17;;;12.20;99.90;;;;;;4919096;29;20480;-89
2022/10/19 07:26:22;;;;;;;10.03;2.17;;;12.30;99.90;;;;;;4918976;29;20471;-89
2022/10/19 07:28:51;;;;;;;6.73;2.57;;;12.30;99.90;;;;;;4918754;29;20828;-89
2022/10/19 07:31:24;;;;;;;6.93;1.90;;;12.30;99.90;;;;;;4919707;29;20436;-88
2022/10/19 07:34:01;;;;;;;7.27;2.30;;;12.30;99.90;;;;;;4918464;29;20456;-87
2022/10/19 07:36:32;;;;;;;9.67;2.10;;;12.30;99.90;;;;;;4918619;29;20451;-88
2022/10/19 07:39:02;;;;;;;6.20;2.50;;;12.30;99.90;;;;;;4918799;29;20963;-88
2022/10/19 07:41:30;;;;;;;7.20;1.73;;;12.40;99.90;;;;;;4918550;29;20464;-88
2022/10/19 07:43:58;;;;;;;6.57;2.00;;;12.40;99.90;;;;;;4918875;29;20520;-88
2022/10/19 07:46:32;;;;;;;7.27;1.90;;;12.40;99.90;;;;;;4919895;29;20458;-88
2022/10/19 07:49:02;;;;;;;4.10;1.60;;;12.40;99.90;;;;;;4918155;29;20476;-88
2022/10/19 07:51:30;;;;;;;7.63;2.10;;;12.40;99.90;;;;;;4918188;29;20444;-88
2022/10/19 07:53:59;;;;;;;7.80;2.80;;;12.50;99.90;;;;;;4919787;29;20487;-88
2022/10/19 07:56:28;;;;;;;8.07;2.20;;;12.50;99.90;;;;;;4917734;29;20452;-88
2022/10/19 07:58:57;;;;;;;7.23;2.67;;;12.50;99.90;;;;;;4917635;29;20468;-88
2022/10/19 08:01:28;;;;;;;9.03;2.23;;;12.50;99.90;;;;;;4919374;29;20447;-88
2022/10/19 08:03:59;;;;;;;7.00;1.87;;;12.60;99.90;;;;;;4918636;29;20555;-88
2022/10/19 08:06:48;;;;;;;5.73;1.80;;;12.60;99.90;;;;;;4918447;29;20444;-88
2022/10/19 08:09:17;;;;;;;7.73;2.27;;;12.60;99.90;;;;;;4918676;29;20477;-90
2022/10/19 08:12:05;;;;;;;6.07;2.07;;;12.70;99.90;;;;;;4919919;29;21003;-88
2022/10/19 08:14:35;;;;;;;6.77;2.10;;;12.70;99.90;;;;;;4923100;29;20456;-87
2022/10/19 08:17:03;;;;;;;5.87;2.33;;;12.70;99.90;;;;;;4930335;29;20547;-88
2022/10/19 08:19:31;;;;;;;6.33;1.70;;;12.70;99.90;;;;;;4932127;29;20484;-88
2022/10/19 08:22:01;;;;;;;6.80;1.50;;;12.80;99.90;;;;;;4934324;29;20448;-88
2022/10/19 08:24:31;;;;;;;7.93;1.87;;;12.80;99.90;;;;;;4935255;29;20469;-89
2022/10/19 08:27:01;;;;;;;6.30;1.63;;;12.80;99.90;;;;;;4935062;29;20489;-88
2022/10/19 08:29:29;;;;;;;4.97;1.90;;;12.80;99.90;;;;;;4935025;29;20480;-88
2022/10/19 08:31:59;;;;;;;5.50;1.50;;;12.80;99.90;;;;;;4934655;29;20459;-88
2022/10/19 08:34:27;;;;;;;10.23;2.30;;;12.80;99.90;;;;;;4926848;29;20555;-88
2022/10/19 08:36:56;;;;;;;10.30;2.37;;;12.90;99.90;;;;;;4919091;29;20456;-88
2022/10/19 08:39:25;;;;;;;7.40;2.13;;;12.90;99.90;;;;;;4920685;29;20520;-88
2022/10/19 08:42:01;;;;;;;7.20;2.27;;;12.90;99.90;;;;;;4918963;29;20969;-88
2022/10/19 08:44:58;;;;;;;6.43;1.50;;;13.00;99.90;;;;;;4921534;29;20464;-88
2022/10/19 08:47:39;;;;;;;5.20;2.00;;;13.00;99.90;;;;;;4922583;29;20448;-88
2022/10/19 08:50:17;;;;;;;6.63;1.60;;;13.00;99.90;;;;;;4922646;29;20448;-88
2022/10/19 08:52:50;;;;;;;6.63;1.80;;;13.00;99.90;;;;;;4924777;29;20424;-88
2022/10/19 08:55:28;;;;;;;7.03;1.87;;;13.00;99.90;;;;;;4923440;29;20455;-89
2022/10/19 08:58:03;;;;;;;6.57;1.87;;;13.30;99.90;;;;;;4925203;29;20456;-88
2022/10/19 09:00:40;;;;;;;5.93;1.47;;;13.10;99.90;;;;;;4923311;29;20850;-88
2022/10/19 09:03:18;;;;;;;6.27;2.20;;;13.10;99.90;;;;;;4922311;29;20952;-88
2022/10/19 09:06:15;;;;;;;5.70;1.77;;;13.10;99.90;;;;;;4922640;29;20449;-88
2022/10/19 09:08:43;;;;;;;5.33;1.97;;;13.10;99.90;;;;;;4923109;29;20501;-89
2022/10/19 09:11:14;;;;;;;9.40;2.17;;;13.20;99.90;;;;;;4921659;29;20925;-89
2022/10/19 09:13:45;;;;;;;12.20;2.10;;;13.20;99.90;;;;;;4921442;29;20455;-89
2022/10/19 09:16:33;;;;;;;7.70;2.67;;;13.30;99.90;;;;;;4922285;29;20440;-89
2022/10/19 09:19:03;;;;;;;6.10;1.83;;;13.30;99.90;;;;;;4920982;29;20868;-89
2022/10/19 09:21:41;;;;;;;3.60;1.50;;;13.30;99.90;;;;;;4922129;29;20452;-88
2022/10/19 09:24:30;;;;;;;6.60;1.87;;;13.40;99.90;;;;;;4921493;29;20464;-89
2022/10/19 09:27:02;;;;;;;4.80;2.07;;;13.40;99.90;;;;;;4921367;29;20440;-89
2022/10/19 09:29:37;;;;;;;8.33;1.90;;;13.40;99.90;;;;;;4921120;29;20501;-89
2022/10/19 09:32:15;;;;;;;3.60;1.80;;;13.40;99.90;;;;;;4921530;29;20493;-89
2022/10/19 09:34:46;;;;;;;6.43;1.63;;;13.40;99.90;;;;;;4920550;29;20901;-89
2022/10/19 09:37:14;;;;;;;5.00;1.73;;;13.40;99.90;;;;;;4920597;29;20938;-89
2022/10/19 09:39:53;;;;;;;5.73;1.70;;;13.50;99.90;;;;;;4920303;29;20483;-90
2022/10/19 09:42:28;;;;;;;8.00;2.27;;;13.60;99.90;;;;;;4920551;29;20455;-89
2022/10/19 09:44:58;;;;;;;7.23;2.17;;;13.60;99.90;;;;;;4920157;29;20986;-88
2022/10/19 09:47:34;;;;;;;7.60;2.27;;;13.70;99.90;;;;;;4921368;29;20462;-89
2022/10/19 09:50:13;;;;;;;3.80;1.90;;;13.80;99.90;;;;;;4920718;29;20523;-89
2022/10/19 09:52:43;;;;;;;4.87;1.77;;;13.90;99.90;;;;;;4920214;29;20563;-89
2022/10/19 09:55:23;;;;;;;4.90;1.93;;;13.90;99.90;;;;;;4921236;29;20535;-89
2022/10/19 09:58:03;;;;;;;5.07;1.87;;;14.00;99.90;;;;;;4919995;29;20483;-89
2022/10/19 10:00:35;;;;;;;5.10;1.93;;;14.10;99.90;;;;;;4921308;29;20444;-89
2022/10/19 10:03:05;;;;;;;4.77;1.83;;;14.10;99.90;;;;;;4920388;29;20869;-88
2022/10/19 10:05:35;;;;;;;6.00;1.80;;;14.10;99.90;;;;;;4918533;29;20476;-89
2022/10/19 10:08:05;;;;;;;5.50;2.53;;;14.20;99.90;;;;;;4920277;29;20483;-89
2022/10/19 10:10:38;;;;;;;7.43;2.23;;;14.10;99.90;;;;;;4920107;29;20877;-89
2022/10/19 10:13:15;;;;;;;5.83;1.77;;;14.20;99.90;;;;;;4918616;29;20919;-88
2022/10/19 10:15:47;;;;;;;6.10;2.40;;;14.10;99.90;;;;;;4918467;29;20479;-89
2022/10/19 10:18:18;;;;;;;4.70;1.80;;;14.10;99.90;;;;;;4919618;29;20992;-89
2022/10/19 10:21:01;;;;;;;4.73;2.20;;;14.00;99.90;;;;;;4919870;29;20843;-89
2022/10/19 10:23:35;;;;;;;6.37;1.90;;;14.00;99.90;;;;;;4918359;29;20825;-88
2022/10/19 10:26:05;;;;;;;6.80;2.23;;;14.00;99.90;;;;;;4918628;29;20483;-89
2022/10/19 10:28:47;;;;;;;4.37;1.70;;;14.00;99.90;;;;;;4918218;29;20483;-89
2022/10/19 10:31:19;;;;;;;6.40;2.10;;;14.00;99.90;;;;;;4918234;29;20551;-88
2022/10/19 10:33:54;;;;;;;7.00;1.90;;;14.00;99.90;;;;;;4918607;29;20451;-88
2022/10/19 10:36:26;;;;;;;4.40;1.50;;;14.00;99.90;;;;;;4918353;29;20949;-89
2022/10/19 10:39:02;;;;;;;7.70;1.90;;;14.00;99.90;;;;;;4918109;29;20471;-89
2022/10/19 10:41:36;;;;;;;7.30;2.30;;;14.00;99.90;;;;;;4918369;29;20476;-89
2022/10/19 10:44:16;;;;;;;6.67;2.67;;;14.10;99.90;;;;;;4919212;29;20456;-89
2022/10/19 10:46:52;;;;;;;6.57;1.87;;;14.20;99.90;;;;;;4919197;29;20460;-89
2022/10/19 10:49:24;;;;;;;4.10;1.90;;;14.20;99.90;;;;;;4918082;29;20476;-89
2022/10/19 10:51:55;;;;;;;10.70;2.93;;;14.30;99.90;;;;;;4917932;29;20556;-89
2022/10/19 10:54:25;;;;;;;7.10;2.50;;;14.40;99.90;;;;;;4918008;29;20463;-89
2022/10/19 10:57:11;;;;;;;5.03;1.93;;;14.50;99.90;;;;;;4917897;29;20444;-89
2022/10/19 10:59:51;;;;;;;6.53;2.77;;;14.50;99.90;;;;;;4918151;29;20483;-89
2022/10/19 11:02:31;;;;;;;6.20;2.43;;;14.60;99.90;;;;;;4917588;29;20452;-89
2022/10/19 11:05:04;;;;;;;6.20;3.03;;;14.70;99.90;;;;;;4917559;29;20475;-89
2022/10/19 11:07:35;;;;;;;8.43;1.87;;;14.70;99.90;;;;;;4916827;29;20440;-89
2022/10/19 11:10:08;;;;;;;4.27;2.10;;;14.80;99.90;;;;;;4917549;29;20456;-89
2022/10/19 11:12:39;;;;;;;6.10;2.20;;;14.80;99.90;;;;;;4917758;29;20816;-89
2022/10/19 11:15:19;;;;;;;5.87;2.00;;;14.80;99.90;;;;;;4917771;29;20452;-90
2022/10/19 11:17:58;;;;;;;7.60;2.67;;;14.90;99.90;;;;;;4917490;29;20452;-90
2022/10/19 11:20:30;;;;;;;6.20;2.80;;;14.90;99.90;;;;;;4917379;29;20543;-89
2022/10/19 11:23:07;;;;;;;5.83;2.60;;;14.90;99.90;;;;;;4917440;29;20476;-89
2022/10/19 11:25:48;;;;;;;5.00;2.30;;;14.90;99.90;;;;;;4918745;29;20786;-89
2022/10/19 11:28:38;;;;;;;4.20;2.03;;;15.00;99.90;;;;;;4917121;29;21001;-89
2022/10/19 11:31:16;;;;;;;6.63;2.50;;;15.00;99.90;;;;;;4917304;29;20457;-90
2022/10/19 11:33:54;;;;;;;8.97;1.90;;;15.10;99.90;;;;;;4917093;29;20456;-90
2022/10/19 11:36:37;;;;;;;7.53;2.20;;;15.10;99.90;;;;;;4918473;29;20527;-89
2022/10/19 11:39:26;;;;;;;6.83;2.37;;;15.10;99.90;;;;;;4916837;29;20479;-89
2022/10/19 11:42:05;;;;;;;6.50;2.40;;;15.20;99.90;;;;;;4918688;29;20444;-89
2022/10/19 11:44:42;;;;;;;5.43;1.97;;;15.20;99.90;;;;;;4917060;29;20483;-90
2022/10/19 11:47:29;;;;;;;4.80;2.27;;;15.30;99.90;;;;;;4916875;29;20550;-90
2022/10/19 11:50:09;;;;;;;7.00;3.33;;;15.30;99.90;;;;;;4917737;29;20480;-90
2022/10/19 11:52:47;;;;;;;6.13;2.23;;;15.40;99.90;;;;;;4917007;29;20452;-90
2022/10/19 11:55:37;;;;;;;5.80;2.10;;;15.40;99.90;;;;;;4916792;29;20921;-89
2022/10/19 11:58:20;;;;;;;5.10;1.63;;;15.40;99.90;;;;;;4916517;29;21036;-89
2022/10/19 12:00:56;;;;;;;7.77;1.97;;;15.40;99.90;;;;;;4917101;29;20464;-89
2022/10/19 12:04:02;;;;;;;8.80;2.50;;;15.40;99.90;;;;;;4916860;29;20447;-89
2022/10/19 12:06:39;;;;;;;7.33;2.27;;;15.50;99.90;;;;;;4916618;29;20508;-90
2022/10/19 12:09:27;;;;;;;7.07;2.40;;;15.50;99.90;;;;;;4916602;29;20527;-89
2022/10/19 12:12:06;;;;;;;6.03;2.00;;;15.60;99.90;;;;;;4916639;29;20448;-89
2022/10/19 12:14:39;;;;;;;5.83;2.07;;;15.60;99.90;;;;;;4917567;29;20459;-89
2022/10/19 12:17:10;;;;;;;4.50;2.07;;;15.60;99.90;;;;;;4916566;29;20452;-89
2022/10/19 12:19:45;;;;;;;9.17;2.60;;;15.60;99.90;;;;;;4917787;29;20460;-89
2022/10/19 12:22:18;;;;;;;10.20;3.13;;;15.60;99.90;;;;;;4916791;29;20452;-89
2022/10/19 12:24:49;;;;;;;20.90;3.23;;;15.50;99.90;;;;;;4916620;29;20867;-89
2022/10/19 12:27:23;;;;;;;19.00;3.90;;;15.40;99.90;;;;;;4916573;29;20448;-88
2022/10/19 12:29:53;;;;;;;7.77;3.83;;;15.40;99.90;;;;;;4917727;29;20480;-88
2022/10/19 12:32:28;;;;;;;24.43;5.70;;;15.40;99.90;;;;;;4916488;29;20455;-88
2022/10/19 12:35:05;;;;;;;4.80;2.17;;;15.40;99.90;;;;;;4916458;29;20461;-89
2022/10/19 12:37:41;;;;;;;4.47;1.77;;;15.40;99.90;;;;;;4917842;29;20854;-89
2022/10/19 12:40:23;;;;;;;10.10;2.47;;;15.40;99.90;;;;;;4916399;29;20459;-89
2022/10/19 12:42:59;;;;;;;6.13;2.00;;;15.50;99.90;;;;;;4916503;29;20886;-89
2022/10/19 12:45:30;;;;;;;12.47;2.53;;;15.60;99.90;;;;;;4917986;29;20467;-89
2022/10/19 12:48:20;;;;;;;9.77;1.97;;;15.60;99.90;;;;;;4918860;29;20500;-89
2022/10/19 12:51:05;;;;;;;6.07;2.20;;;15.60;99.90;;;;;;4916557;29;20449;-89
2022/10/19 12:53:37;;;;;;;8.23;3.57;;;15.60;99.90;;;;;;4919483;29;20938;-89
2022/10/19 12:56:07;;;;;;;7.47;2.43;;;15.60;99.90;;;;;;4935319;29;20448;-89
2022/10/19 12:58:45;;;;;;;5.50;1.97;;;15.50;99.90;;;;;;4934010;29;20483;-89
2022/10/19 13:01:19;;;;;;;7.30;2.30;;;15.50;99.90;;;;;;4938364;29;20515;-88
2022/10/19 13:03:51;;;;;;;4.17;1.87;;;15.50;99.90;;;;;;4937254;29;20441;-88
2022/10/19 13:06:32;;;;;;;6.10;2.03;;;15.50;99.90;;;;;;4939408;29;20570;-87
2022/10/19 13:09:04;;;;;;;4.40;1.73;;;15.50;99.90;;;;;;4940334;29;20499;-88
2022/10/19 13:11:32;;;;;;;3.90;1.50;;;15.50;99.90;;;;;;4937878;29;20448;-89
2022/10/19 13:14:27;;;;;;;5.93;1.67;;;15.60;99.90;;;;;;4916955;29;20452;-88